Time;durP1;ratioP1;P1;durP2;ratioP2;P2;SDS_P1;SDS_P2;PMS_P1;PMS_P2;Temp;Humidity;BMP_temperature;BMP_pressure;BME280_temperature;BME280_humidity;BME280_pressure;Samples;Min_cycle;Max_cycle;Signal;HPM_P1;HPM_P2
2021/06/19 00:01:03;;;;;;;9.20;8.03;;;27.30;79.40;;;;;;5093327;28;20172;-78
2021/06/19 00:03:29;;;;;;;12.63;8.67;;;27.30;79.80;;;;;;5091755;28;20530;-79
2021/06/19 00:05:55;;;;;;;8.40;7.80;;;27.30;80.30;;;;;;5092345;28;20173;-79
2021/06/19 00:08:24;;;;;;;8.30;7.50;;;27.20;80.20;;;;;;5103761;28;20463;-79
2021/06/19 00:10:50;;;;;;;8.20;7.60;;;27.20;80.60;;;;;;5113212;28;20176;-79
2021/06/19 00:13:16;;;;;;;9.27;8.40;;;27.10;80.80;;;;;;5113194;28;20437;-79
2021/06/19 00:15:42;;;;;;;8.97;7.90;;;27.10;81.20;;;;;;5113736;28;20405;-79
2021/06/19 00:18:07;;;;;;;7.90;7.30;;;27.10;81.70;;;;;;5104405;28;20491;-79
2021/06/19 00:20:33;;;;;;;10.37;7.07;;;27.10;81.90;;;;;;5094430;28;20173;-79
2021/06/19 00:22:59;;;;;;;7.70;7.00;;;27.00;81.90;;;;;;5093152;28;20231;-79
2021/06/19 00:25:26;;;;;;;9.13;7.80;;;27.00;82.10;;;;;;5098252;28;20175;-79
2021/06/19 00:27:53;;;;;;;7.37;6.70;;;27.00;82.40;;;;;;5113381;28;20290;-79
2021/06/19 00:30:20;;;;;;;12.90;6.60;;;27.00;83.00;;;;;;5102089;28;20414;-79
2021/06/19 00:32:46;;;;;;;6.73;6.27;;;26.90;83.00;;;;;;5093137;28;20403;-79
2021/06/19 00:35:13;;;;;;;7.70;6.53;;;26.80;82.70;;;;;;5092479;28;20410;-79
2021/06/19 00:37:38;;;;;;;7.17;6.53;;;26.80;83.00;;;;;;5092776;28;20428;-79
2021/06/19 00:40:07;;;;;;;6.53;6.17;;;26.80;83.20;;;;;;5101743;28;20909;-79
2021/06/19 00:42:33;;;;;;;7.20;6.60;;;26.80;83.40;;;;;;5113574;28;20197;-79
2021/06/19 00:44:59;;;;;;;7.77;6.60;;;26.70;83.30;;;;;;5113343;28;20492;-79
2021/06/19 00:47:26;;;;;;;7.33;6.80;;;26.60;83.30;;;;;;5112481;28;20548;-80
2021/06/19 00:49:52;;;;;;;6.00;5.60;;;26.60;84.60;;;;;;5105879;28;20752;-79
2021/06/19 00:52:17;;;;;;;6.10;5.70;;;26.50;83.60;;;;;;5093233;28;20508;-80
2021/06/19 00:54:43;;;;;;;6.60;5.73;;;26.50;83.70;;;;;;5092851;28;20255;-79
2021/06/19 00:57:10;;;;;;;6.93;5.67;;;26.50;83.70;;;;;;5092219;28;20183;-80
2021/06/19 00:59:37;;;;;;;6.90;6.30;;;26.50;84.00;;;;;;5096653;28;20179;-79
2021/06/19 01:02:04;;;;;;;5.40;5.00;;;26.40;84.30;;;;;;5113073;28;20517;-79
2021/06/19 01:04:30;;;;;;;5.07;4.57;;;26.40;84.70;;;;;;5112490;28;20433;-79
2021/06/19 01:06:58;;;;;;;6.43;6.00;;;26.30;84.90;;;;;;5094823;28;20541;-79
2021/06/19 01:09:23;;;;;;;5.57;5.17;;;26.30;85.20;;;;;;5091999;28;20463;-79
2021/06/19 01:11:51;;;;;;;5.50;5.10;;;26.30;84.90;;;;;;5092649;28;20403;-79
2021/06/19 01:14:17;;;;;;;6.97;6.37;;;26.20;84.80;;;;;;5092288;28;20237;-79
2021/06/19 01:16:47;;;;;;;9.30;5.90;;;26.10;85.10;;;;;;5098139;28;20417;-79
2021/06/19 01:19:13;;;;;;;5.57;5.27;;;26.10;85.60;;;;;;5110934;28;20409;-80
2021/06/19 01:21:39;;;;;;;7.37;5.73;;;26.10;86.20;;;;;;5092702;28;20398;-80
2021/06/19 01:24:05;;;;;;;5.93;5.53;;;26.10;86.60;;;;;;5102447;28;20463;-80
2021/06/19 01:26:31;;;;;;;5.20;4.93;;;26.00;86.90;;;;;;5116709;28;20195;-80
2021/06/19 01:28:58;;;;;;;5.30;5.00;;;25.90;87.40;;;;;;5116985;28;20401;-79
2021/06/19 01:31:26;;;;;;;6.50;5.90;;;25.90;88.00;;;;;;5115642;28;20414;-79
2021/06/19 01:33:52;;;;;;;5.73;5.33;;;25.90;88.60;;;;;;5116813;28;20416;-79
2021/06/19 01:36:20;;;;;;;6.50;5.70;;;25.80;89.10;;;;;;5115017;28;20406;-80
2021/06/19 01:38:48;;;;;;;5.80;5.30;;;25.80;89.50;;;;;;5116572;28;20193;-79
2021/06/19 01:41:26;;;;;;;6.10;5.60;;;25.70;89.30;;;;;;5098974;28;20963;-80
2021/06/19 01:44:06;;;;;;;6.33;5.93;;;25.70;89.60;;;;;;5096143;28;20795;-79
2021/06/19 01:46:34;;;;;;;5.27;4.97;;;25.60;89.70;;;;;;5095213;28;20530;-80
2021/06/19 01:49:00;;;;;;;5.60;4.67;;;25.60;90.00;;;;;;5095051;28;20410;-80
2021/06/19 01:51:26;;;;;;;5.47;4.97;;;25.50;90.00;;;;;;5095532;28;20890;-80
2021/06/19 01:53:55;;;;;;;4.73;4.43;;;25.50;90.20;;;;;;5096990;28;20415;-79
2021/06/19 01:56:21;;;;;;;4.70;4.40;;;25.40;90.20;;;;;;5095504;28;20807;-80
2021/06/19 01:58:47;;;;;;;5.40;4.90;;;25.40;90.80;;;;;;5097124;28;20418;-80
2021/06/19 02:01:15;;;;;;;5.43;4.80;;;25.30;90.50;;;;;;5111438;28;20473;-80
2021/06/19 02:03:41;;;;;;;5.37;4.90;;;25.30;90.70;;;;;;5116552;28;20417;-80
2021/06/19 02:06:08;;;;;;;5.27;4.77;;;25.30;90.90;;;;;;5115979;28;20415;-79
2021/06/19 02:08:35;;;;;;;5.10;4.60;;;25.30;91.10;;;;;;5115586;28;20449;-79
2021/06/19 02:11:02;;;;;;;5.53;5.03;;;25.20;91.00;;;;;;5101180;28;20505;-80
2021/06/19 02:13:28;;;;;;;5.30;4.90;;;25.20;91.20;;;;;;5095204;28;20440;-79
2021/06/19 02:15:55;;;;;;;6.57;4.80;;;25.10;91.30;;;;;;5095395;28;20435;-79
2021/06/19 02:18:21;;;;;;;5.90;5.50;;;25.10;91.50;;;;;;5095079;28;20582;-79
2021/06/19 02:20:51;;;;;;;5.90;5.30;;;24.90;91.70;;;;;;5095619;28;20508;-79
2021/06/19 02:23:18;;;;;;;5.10;4.70;;;24.90;92.10;;;;;;5112804;28;20461;-80
2021/06/19 02:25:46;;;;;;;5.37;5.00;;;24.90;92.50;;;;;;5115935;28;20771;-79
2021/06/19 02:28:12;;;;;;;5.30;4.90;;;24.90;92.70;;;;;;5114581;28;20456;-79
2021/06/19 02:30:44;;;;;;;5.10;4.80;;;24.80;92.80;;;;;;5115268;28;20394;-79
2021/06/19 02:33:10;;;;;;;5.50;5.20;;;24.70;92.90;;;;;;5115344;28;20262;-79
2021/06/19 02:35:39;;;;;;;5.60;5.20;;;24.70;92.90;;;;;;5108377;28;20438;-79
2021/06/19 02:38:05;;;;;;;5.97;5.50;;;24.80;93.00;;;;;;5094122;28;20513;-79
2021/06/19 02:40:32;;;;;;;5.93;5.33;;;24.80;93.10;;;;;;5094591;28;20796;-79
2021/06/19 02:42:59;;;;;;;6.60;6.20;;;24.80;93.20;;;;;;5096197;28;20430;-79
2021/06/19 02:45:25;;;;;;;6.40;5.90;;;24.80;93.40;;;;;;5113719;28;20819;-80
2021/06/19 02:47:53;;;;;;;7.37;6.67;;;24.70;93.30;;;;;;5115506;28;20797;-79
2021/06/19 02:50:24;;;;;;;6.93;6.43;;;24.70;93.10;;;;;;5111988;28;20916;-80
2021/06/19 02:52:50;;;;;;;6.90;6.40;;;24.80;93.20;;;;;;5098271;28;20472;-79
2021/06/19 02:55:21;;;;;;;6.53;6.10;;;24.80;93.40;;;;;;5094395;28;20509;-80
2021/06/19 02:57:47;;;;;;;6.80;6.40;;;24.80;93.20;;;;;;5095103;28;20497;-79
2021/06/19 03:00:16;;;;;;;6.60;6.20;;;24.80;93.10;;;;;;5095076;28;20433;-79
2021/06/19 03:02:42;;;;;;;6.20;5.80;;;24.80;92.90;;;;;;5094852;28;20893;-79
2021/06/19 03:05:10;;;;;;;5.73;5.43;;;24.90;92.90;;;;;;5094774;28;20405;-79
2021/06/19 03:07:36;;;;;;;6.00;5.00;;;24.90;92.70;;;;;;5094253;28;20458;-79
2021/06/19 03:10:03;;;;;;;5.73;5.43;;;24.90;92.70;;;;;;5094619;28;20467;-79
2021/06/19 03:12:29;;;;;;;5.53;5.13;;;24.90;92.60;;;;;;5103142;28;20433;-79
2021/06/19 03:14:56;;;;;;;4.80;4.50;;;24.90;92.70;;;;;;5115012;28;20498;-79
2021/06/19 03:17:22;;;;;;;4.73;4.43;;;24.90;92.80;;;;;;5114279;28;20191;-79
2021/06/19 03:19:48;;;;;;;5.13;4.70;;;24.90;93.10;;;;;;5114873;28;20410;-79
2021/06/19 03:22:14;;;;;;;5.77;5.33;;;24.80;93.00;;;;;;5111852;28;20987;-79
2021/06/19 03:24:41;;;;;;;4.27;4.07;;;24.80;92.80;;;;;;5098977;28;20541;-79
2021/06/19 03:27:12;;;;;;;4.73;4.33;;;24.80;92.80;;;;;;5094353;28;20279;-79
2021/06/19 03:29:38;;;;;;;5.40;5.00;;;24.70;92.70;;;;;;5093687;28;20482;-79
2021/06/19 03:32:06;;;;;;;4.07;3.80;;;24.70;92.70;;;;;;5094279;28;20497;-78
2021/06/19 03:34:32;;;;;;;4.47;4.07;;;24.70;92.50;;;;;;5094663;28;20407;-80
2021/06/19 03:37:01;;;;;;;5.03;4.73;;;24.70;92.40;;;;;;5095568;28;20414;-79
2021/06/19 03:39:31;;;;;;;4.90;4.60;;;24.70;92.40;;;;;;5113592;28;20798;-79
2021/06/19 03:41:58;;;;;;;4.60;4.20;;;24.70;92.50;;;;;;5114239;28;20420;-79
2021/06/19 03:44:25;;;;;;;4.60;4.30;;;24.70;92.40;;;;;;5104310;28;20496;-79
2021/06/19 03:46:51;;;;;;;3.83;3.57;;;24.70;92.20;;;;;;5093229;28;20454;-79
2021/06/19 03:49:17;;;;;;;4.20;4.00;;;24.70;92.20;;;;;;5093615;28;20418;-80
2021/06/19 03:51:45;;;;;;;4.40;4.10;;;24.70;92.20;;;;;;5094027;28;20426;-79
2021/06/19 03:54:11;;;;;;;3.70;3.60;;;24.70;92.40;;;;;;5093950;28;20742;-79
2021/06/19 03:56:37;;;;;;;4.30;4.07;;;24.70;92.30;;;;;;5093116;28;20498;-80
2021/06/19 03:59:03;;;;;;;4.67;4.37;;;24.70;92.50;;;;;;5093610;28;20173;-79
2021/06/19 04:01:29;;;;;;;4.17;3.97;;;24.70;92.70;;;;;;5093134;28;20169;-79
2021/06/19 04:03:54;;;;;;;4.00;3.80;;;24.70;92.20;;;;;;5093609;28;20182;-80
2021/06/19 04:06:20;;;;;;;4.13;3.93;;;24.70;92.30;;;;;;5093004;28;20509;-80
2021/06/19 04:08:46;;;;;;;4.20;4.00;;;24.70;92.70;;;;;;5093191;28;20251;-80
2021/06/19 04:11:15;;;;;;;4.60;4.20;;;24.60;92.80;;;;;;5091949;28;20620;-79
2021/06/19 04:13:43;;;;;;;4.03;3.80;;;24.70;93.30;;;;;;5092614;28;20582;-79
2021/06/19 04:16:10;;;;;;;4.30;4.10;;;24.70;93.10;;;;;;5093116;28;20505;-79
2021/06/19 04:18:37;;;;;;;4.23;4.00;;;24.60;92.90;;;;;;5093086;28;20957;-79
2021/06/19 04:21:03;;;;;;;3.90;3.70;;;24.60;92.70;;;;;;5093874;28;20414;-79
2021/06/19 04:23:29;;;;;;;4.40;4.10;;;24.60;92.90;;;;;;5092240;28;20465;-79
2021/06/19 04:25:55;;;;;;;4.33;4.13;;;24.60;93.00;;;;;;5093247;28;20791;-79
2021/06/19 04:28:21;;;;;;;4.47;4.20;;;24.60;93.00;;;;;;5092493;28;20211;-81
2021/06/19 04:30:46;;;;;;;4.70;4.30;;;24.60;93.30;;;;;;5093494;28;20625;-79
2021/06/19 04:33:12;;;;;;;4.27;4.10;;;24.70;93.90;;;;;;5094291;28;20175;-79
2021/06/19 04:35:38;;;;;;;5.37;4.30;;;24.70;93.20;;;;;;5109535;28;20183;-78
2021/06/19 04:38:03;;;;;;;4.87;4.57;;;24.70;93.20;;;;;;5098078;28;20597;-79
2021/06/19 04:40:37;;;;;;;4.53;4.23;;;24.70;93.10;;;;;;5092546;28;20226;-79
2021/06/19 04:43:09;;;;;;;4.20;4.10;;;24.70;93.00;;;;;;5093058;28;20172;-79
2021/06/19 04:45:35;;;;;;;4.70;4.40;;;24.70;93.20;;;;;;5111725;28;20402;-80
2021/06/19 04:48:03;;;;;;;4.70;4.47;;;24.70;93.50;;;;;;5113237;28;20437;-79
2021/06/19 04:50:31;;;;;;;4.10;3.90;;;24.70;93.30;;;;;;5110714;28;20430;-80
2021/06/19 04:52:58;;;;;;;4.77;4.33;;;24.70;93.10;;;;;;5092816;28;20433;-82
2021/06/19 04:55:24;;;;;;;5.27;4.80;;;24.70;93.10;;;;;;5111251;28;20459;-81
2021/06/19 04:57:54;;;;;;;4.27;4.07;;;24.60;92.70;;;;;;5111089;28;20428;-79
2021/06/19 05:00:20;;;;;;;5.73;5.33;;;24.60;93.00;;;;;;5112925;28;20405;-79
2021/06/19 05:02:47;;;;;;;4.03;3.80;;;24.60;93.40;;;;;;5111993;28;20492;-75
2021/06/19 05:05:14;;;;;;;4.40;4.00;;;24.60;93.60;;;;;;5113127;28;20406;-79
2021/06/19 05:07:40;;;;;;;4.00;3.70;;;24.60;93.80;;;;;;5109895;28;20907;-79
2021/06/19 05:10:07;;;;;;;4.33;4.13;;;24.70;93.80;;;;;;5110530;28;20457;-80
2021/06/19 05:12:34;;;;;;;4.40;4.20;;;24.50;93.50;;;;;;5092516;28;20525;-79
2021/06/19 05:15:00;;;;;;;6.20;4.67;;;24.50;93.90;;;;;;5095467;28;20812;-79
2021/06/19 05:17:27;;;;;;;4.57;4.27;;;24.50;94.10;;;;;;5103095;28;20417;-79
2021/06/19 05:19:55;;;;;;;4.70;4.40;;;24.50;93.80;;;;;;5091774;28;20402;-80
2021/06/19 05:22:21;;;;;;;4.17;3.97;;;24.40;93.70;;;;;;5092008;28;20415;-79
2021/06/19 05:24:47;;;;;;;4.10;3.90;;;24.40;93.70;;;;;;5092731;28;20972;-79
2021/06/19 05:27:12;;;;;;;4.20;3.80;;;24.40;93.50;;;;;;5091631;28;20461;-79
2021/06/19 05:29:38;;;;;;;4.10;3.80;;;24.40;93.80;;;;;;5091324;28;20173;-80
2021/06/19 05:32:05;;;;;;;3.70;3.50;;;24.40;93.80;;;;;;5091019;28;20252;-79
2021/06/19 05:34:31;;;;;;;4.50;4.10;;;24.40;93.50;;;;;;5091278;28;20203;-80
2021/06/19 05:36:56;;;;;;;4.50;4.20;;;24.30;93.70;;;;;;5110459;28;20437;-79
2021/06/19 05:39:22;;;;;;;6.63;6.13;;;24.30;93.40;;;;;;5112510;28;20183;-79
2021/06/19 05:41:48;;;;;;;4.83;4.43;;;24.30;93.30;;;;;;5111545;28;20183;-79
2021/06/19 05:44:13;;;;;;;4.73;4.43;;;24.30;93.80;;;;;;5111142;28;20611;-79
2021/06/19 05:46:39;;;;;;;3.70;3.50;;;24.30;93.90;;;;;;5110677;28;20603;-80
2021/06/19 05:49:05;;;;;;;3.83;3.47;;;24.30;94.20;;;;;;5112303;28;20171;-79
2021/06/19 05:51:32;;;;;;;4.03;3.83;;;24.30;93.40;;;;;;5111551;28;20190;-80
2021/06/19 05:53:58;;;;;;;4.40;4.00;;;24.30;93.50;;;;;;5112532;28;20418;-79
2021/06/19 05:56:24;;;;;;;4.00;3.80;;;24.30;93.80;;;;;;5111111;28;20401;-79
2021/06/19 05:58:50;;;;;;;4.30;4.00;;;24.40;93.70;;;;;;5110359;28;20432;-79
2021/06/19 06:01:15;;;;;;;4.60;4.20;;;24.40;93.40;;;;;;5111678;28;20190;-79
2021/06/19 06:03:41;;;;;;;4.40;4.20;;;24.40;93.50;;;;;;5101186;28;20176;-79
2021/06/19 06:06:07;;;;;;;4.37;4.07;;;24.40;93.30;;;;;;5091476;28;20181;-79
2021/06/19 06:08:33;;;;;;;4.33;4.07;;;24.50;93.80;;;;;;5091468;28;20200;-79
2021/06/19 06:10:59;;;;;;;4.67;4.47;;;24.50;93.70;;;;;;5095546;28;20549;-80
2021/06/19 06:13:24;;;;;;;3.60;3.40;;;24.60;93.80;;;;;;5095414;28;20405;-79
2021/06/19 06:15:51;;;;;;;4.80;4.60;;;24.60;93.20;;;;;;5094384;28;20180;-79
2021/06/19 06:18:16;;;;;;;4.93;4.63;;;24.70;93.50;;;;;;5095450;28;20644;-80
2021/06/19 06:20:42;;;;;;;4.50;4.20;;;24.70;93.30;;;;;;5094464;28;20442;-79
2021/06/19 06:23:08;;;;;;;5.20;4.80;;;24.80;93.30;;;;;;5093734;28;20626;-79
2021/06/19 06:25:33;;;;;;;4.47;4.27;;;24.90;93.70;;;;;;5107750;28;20171;-80
2021/06/19 06:27:59;;;;;;;5.10;4.70;;;24.90;93.90;;;;;;5112519;28;20203;-79
2021/06/19 06:30:25;;;;;;;3.90;3.60;;;25.00;93.10;;;;;;5110130;28;20198;-79
2021/06/19 06:32:51;;;;;;;5.73;5.23;;;25.00;93.30;;;;;;5094873;28;20187;-80
2021/06/19 06:35:16;;;;;;;4.70;4.30;;;25.00;93.40;;;;;;5095686;28;20422;-80
2021/06/19 06:37:43;;;;;;;3.70;3.50;;;25.10;93.30;;;;;;5098137;28;20179;-80
2021/06/19 06:40:11;;;;;;;4.13;3.93;;;25.10;93.20;;;;;;5109212;28;20537;-83
2021/06/19 06:42:40;;;;;;;4.80;4.43;;;25.20;93.20;;;;;;5105806;28;20773;-82
2021/06/19 06:45:08;;;;;;;3.77;3.57;;;25.30;94.50;;;;;;5094014;28;20464;-82
2021/06/19 06:47:34;;;;;;;6.73;6.13;;;25.40;93.30;;;;;;5105903;28;20460;-83
2021/06/19 06:50:00;;;;;;;6.10;5.80;;;25.40;92.90;;;;;;5115820;28;20897;-82
2021/06/19 06:52:26;;;;;;;4.73;4.53;;;25.40;92.70;;;;;;5115411;28;20989;-82
2021/06/19 06:54:51;;;;;;;3.90;3.60;;;25.40;92.40;;;;;;5123897;27;20266;-82
2021/06/19 06:57:17;;;;;;;6.53;4.33;;;25.40;92.90;;;;;;5108886;27;20256;-81
2021/06/19 06:59:43;;;;;;;5.20;4.23;;;25.50;92.90;;;;;;5099238;28;20179;-82
2021/06/19 07:02:09;;;;;;;6.10;5.53;;;25.50;92.90;;;;;;5107529;28;20176;-82
2021/06/19 07:04:35;;;;;;;5.47;5.07;;;25.60;92.70;;;;;;5107158;28;20531;-82
2021/06/19 07:07:01;;;;;;;11.00;9.90;;;25.70;91.90;;;;;;5110604;28;20202;-82
2021/06/19 07:09:26;;;;;;;7.00;6.50;;;25.80;92.10;;;;;;5115169;28;20172;-81
2021/06/19 07:11:52;;;;;;;4.00;3.80;;;25.90;92.10;;;;;;5098647;28;20180;-82
2021/06/19 07:14:18;;;;;;;4.90;4.60;;;25.90;91.10;;;;;;5099745;28;20516;-82
2021/06/19 07:16:44;;;;;;;19.43;17.33;;;26.00;91.40;;;;;;5112621;28;20224;-83
2021/06/19 07:19:09;;;;;;;14.37;12.37;;;26.00;91.40;;;;;;5097918;28;20180;-81
2021/06/19 07:21:35;;;;;;;33.20;26.63;;;26.10;91.40;;;;;;5113311;28;20175;-81
2021/06/19 07:24:01;;;;;;;22.83;20.27;;;26.20;91.40;;;;;;5112574;28;20246;-83
2021/06/19 07:26:26;;;;;;;31.63;24.10;;;26.20;91.00;;;;;;5110129;28;20222;-80
2021/06/19 07:28:52;;;;;;;26.20;20.00;;;26.30;90.90;;;;;;5093334;28;20265;-85
2021/06/19 07:31:18;;;;;;;7.90;7.17;;;26.30;90.60;;;;;;5104105;28;20180;-83
2021/06/19 07:33:43;;;;;;;7.57;3.60;;;26.40;90.60;;;;;;5109318;28;20530;-82
2021/06/19 07:36:10;;;;;;;25.23;13.07;;;26.40;90.00;;;;;;5096640;28;20255;-82
2021/06/19 07:38:35;;;;;;;34.13;30.60;;;26.50;90.60;;;;;;5095152;28;20184;-82
2021/06/19 07:41:01;;;;;;;6.10;5.50;;;26.50;90.30;;;;;;5101791;28;20965;-82
2021/06/19 07:43:27;;;;;;;4.23;4.03;;;26.50;90.10;;;;;;5096330;28;20174;-83
2021/06/19 07:45:53;;;;;;;14.30;10.93;;;26.60;91.10;;;;;;5113820;28;20411;-82
2021/06/19 07:48:19;;;;;;;4.57;4.37;;;26.60;90.70;;;;;;5103885;28;20204;-82
2021/06/19 07:50:45;;;;;;;5.73;5.33;;;26.70;90.50;;;;;;5109202;27;20829;-83
2021/06/19 07:53:11;;;;;;;6.57;6.07;;;26.80;90.40;;;;;;5114843;27;20512;-83
2021/06/19 07:55:38;;;;;;;10.43;9.50;;;26.90;90.50;;;;;;5107753;28;20180;-82
2021/06/19 07:58:04;;;;;;;3.63;3.43;;;27.00;90.80;;;;;;5110020;27;20931;-82
2021/06/19 08:00:31;;;;;;;4.20;3.03;;;27.10;88.20;;;;;;5114111;28;20445;-82
2021/06/19 08:03:00;;;;;;;4.40;4.10;;;27.10;86.70;;;;;;5117178;27;20467;-82
2021/06/19 08:05:26;;;;;;;3.17;3.07;;;26.90;86.80;;;;;;5113714;27;20925;-83
2021/06/19 08:07:53;;;;;;;5.40;3.97;;;26.90;86.60;;;;;;5106529;28;20855;-83
2021/06/19 08:10:18;;;;;;;3.43;3.23;;;27.10;87.60;;;;;;5104613;28;20444;-84
2021/06/19 08:12:44;;;;;;;4.90;4.60;;;27.20;87.60;;;;;;5105113;28;20466;-84
2021/06/19 08:15:11;;;;;;;3.77;3.57;;;27.30;86.70;;;;;;5103047;28;20176;-84
2021/06/19 08:17:37;;;;;;;8.20;7.60;;;27.40;87.20;;;;;;5092625;28;20168;-84
2021/06/19 08:20:04;;;;;;;3.80;3.33;;;27.50;83.40;;;;;;5110284;28;20490;-84
2021/06/19 08:22:31;;;;;;;81.17;72.50;;;27.60;84.50;;;;;;5098026;28;20199;-84
2021/06/19 08:24:57;;;;;;;117.77;106.70;;;27.70;86.10;;;;;;5092819;28;20406;-84
2021/06/19 08:27:25;;;;;;;6.47;6.00;;;27.90;85.90;;;;;;5093225;28;20446;-84
2021/06/19 08:29:54;;;;;;;3.50;3.20;;;28.00;85.20;;;;;;5092716;28;20924;-84
2021/06/19 08:32:20;;;;;;;4.37;4.07;;;28.10;84.50;;;;;;5095478;28;20418;-83
2021/06/19 08:34:46;;;;;;;5.80;5.40;;;28.20;83.70;;;;;;5092495;28;20422;-83
2021/06/19 08:37:12;;;;;;;5.13;4.80;;;28.40;84.60;;;;;;5101335;28;20417;-83
2021/06/19 08:39:38;;;;;;;3.47;3.27;;;28.40;83.20;;;;;;5098561;28;20229;-84
2021/06/19 08:42:04;;;;;;;3.83;3.63;;;28.50;82.80;;;;;;5092495;28;20410;-83
2021/06/19 08:44:30;;;;;;;4.60;4.30;;;28.60;82.20;;;;;;5113373;28;20250;-84
2021/06/19 08:46:57;;;;;;;3.87;3.67;;;28.70;81.00;;;;;;5112713;28;20453;-83
2021/06/19 08:49:25;;;;;;;3.47;3.37;;;28.80;80.40;;;;;;5113357;28;20252;-84
2021/06/19 08:51:54;;;;;;;3.17;3.07;;;28.90;80.20;;;;;;5110930;28;20406;-83
2021/06/19 08:54:23;;;;;;;3.33;3.13;;;28.60;77.80;;;;;;5095626;28;20772;-84
2021/06/19 08:56:50;;;;;;;3.20;3.10;;;28.70;80.20;;;;;;5123775;27;20931;-84
2021/06/19 08:59:16;;;;;;;3.10;2.90;;;28.90;80.80;;;;;;5112636;27;20778;-83
2021/06/19 09:01:43;;;;;;;3.07;2.97;;;29.00;79.30;;;;;;5099752;28;20409;-84
2021/06/19 09:04:10;;;;;;;4.43;4.20;;;29.20;78.40;;;;;;5114175;27;20935;-85
2021/06/19 09:06:42;;;;;;;4.83;4.43;;;29.30;78.10;;;;;;5096277;28;20422;-83
2021/06/19 09:09:15;;;;;;;3.30;3.20;;;29.30;78.60;;;;;;5112089;28;20489;-83
2021/06/19 09:11:45;;;;;;;6.87;6.23;;;29.40;79.20;;;;;;5106407;28;20414;-81
2021/06/19 09:14:22;;;;;;;3.93;3.73;;;29.60;77.90;;;;;;5094126;28;20433;-81
2021/06/19 09:16:58;;;;;;;5.37;4.87;;;29.70;76.20;;;;;;5112842;28;20794;-81
2021/06/19 09:19:28;;;;;;;51.10;45.17;;;29.90;76.00;;;;;;5112638;28;20428;-81
2021/06/19 09:22:13;;;;;;;18.17;16.47;;;29.90;75.20;;;;;;5112019;28;20432;-83
2021/06/19 09:24:59;;;;;;;32.10;29.07;;;30.00;75.60;;;;;;5112624;28;20462;-83
2021/06/19 09:27:47;;;;;;;4.10;3.90;;;30.00;76.20;;;;;;5111794;28;20782;-86
2021/06/19 09:30:14;;;;;;;2.83;2.73;;;30.20;75.00;;;;;;5110310;28;20820;-82
2021/06/19 09:33:02;;;;;;;3.37;3.27;;;30.40;74.80;;;;;;5112209;28;20463;-83
2021/06/19 09:35:32;;;;;;;3.40;3.30;;;30.80;74.00;;;;;;5101010;28;20422;-83
2021/06/19 09:38:14;;;;;;;3.83;3.63;;;30.90;70.00;;;;;;5097393;28;20429;-83
2021/06/19 09:40:44;;;;;;;3.60;3.50;;;31.20;70.40;;;;;;5110899;28;20398;-82
2021/06/19 09:43:13;;;;;;;3.83;3.70;;;31.40;68.30;;;;;;5100019;28;20886;-82
2021/06/19 09:45:42;;;;;;;3.90;3.70;;;31.60;69.30;;;;;;5095139;28;20414;-84
2021/06/19 09:48:31;;;;;;;4.00;3.90;;;31.80;65.60;;;;;;5097853;28;20451;-85
2021/06/19 09:51:18;;;;;;;3.20;3.00;;;32.00;65.70;;;;;;5093909;28;20834;-84
2021/06/19 09:53:49;;;;;;;4.20;4.00;;;32.20;69.40;;;;;;5099057;28;20429;-86
2021/06/19 09:56:18;;;;;;;4.30;4.00;;;32.40;66.70;;;;;;5110234;28;20414;-84
2021/06/19 09:58:49;;;;;;;3.57;3.47;;;32.50;64.00;;;;;;5096797;28;20446;-85
2021/06/19 10:01:38;;;;;;;3.67;3.47;;;32.60;65.60;;;;;;5095592;28;20462;-85
2021/06/19 10:04:05;;;;;;;3.27;3.17;;;32.70;65.50;;;;;;5098735;28;20415;-84
2021/06/19 10:06:32;;;;;;;3.30;3.20;;;32.80;63.40;;;;;;5096967;28;20465;-85
2021/06/19 10:08:59;;;;;;;3.50;3.30;;;33.00;62.20;;;;;;5112118;27;20445;-85
2021/06/19 10:11:27;;;;;;;3.40;3.20;;;33.10;64.40;;;;;;5098433;28;20434;-85
2021/06/19 10:13:55;;;;;;;3.43;3.07;;;33.30;59.00;;;;;;5102704;28;20936;-85
2021/06/19 10:16:25;;;;;;;3.40;3.30;;;33.40;59.70;;;;;;5095624;28;20413;-84
2021/06/19 10:18:52;;;;;;;3.60;3.50;;;33.60;61.70;;;;;;5108504;28;20420;-82
2021/06/19 10:21:26;;;;;;;4.20;4.00;;;33.70;58.90;;;;;;5115964;28;20421;-84
2021/06/19 10:23:52;;;;;;;4.00;3.90;;;33.80;61.10;;;;;;5115610;28;20476;-84
2021/06/19 10:26:27;;;;;;;3.40;3.30;;;33.90;58.90;;;;;;5116009;28;20401;-84
2021/06/19 10:28:56;;;;;;;3.70;3.40;;;34.00;58.70;;;;;;5113365;28;20524;-84
2021/06/19 10:31:23;;;;;;;3.23;3.13;;;34.10;59.00;;;;;;5114756;28;20402;-84
2021/06/19 10:33:50;;;;;;;3.60;3.40;;;34.30;59.40;;;;;;5111996;28;20416;-84
2021/06/19 10:36:16;;;;;;;3.57;3.30;;;34.30;58.60;;;;;;5094270;28;20406;-83
2021/06/19 10:38:53;;;;;;;4.00;3.80;;;34.40;56.70;;;;;;5106582;28;20924;-83
2021/06/19 10:41:21;;;;;;;3.57;3.47;;;34.40;54.50;;;;;;5096577;28;20421;-86
2021/06/19 10:43:51;;;;;;;3.80;3.50;;;34.30;55.70;;;;;;5081392;28;20422;-84
2021/06/19 10:46:32;;;;;;;3.67;3.57;;;34.20;55.00;;;;;;5111335;28;20421;-83
2021/06/19 10:49:00;;;;;;;3.40;3.23;;;34.30;57.00;;;;;;5113518;28;20451;-83
2021/06/19 10:51:30;;;;;;;4.30;4.10;;;34.50;57.30;;;;;;5115190;28;20425;-83
2021/06/19 10:54:14;;;;;;;3.73;3.63;;;34.50;55.90;;;;;;5112844;28;20410;-83
2021/06/19 10:56:50;;;;;;;3.87;3.50;;;34.60;55.80;;;;;;5113839;28;20422;-83
2021/06/19 10:59:21;;;;;;;3.10;3.00;;;34.30;54.80;;;;;;5115547;28;20442;-84
2021/06/19 11:01:48;;;;;;;3.97;3.30;;;34.30;53.00;;;;;;5114991;28;20421;-84
2021/06/19 11:04:36;;;;;;;3.10;3.00;;;34.30;55.20;;;;;;5115040;28;20417;-83
2021/06/19 11:07:06;;;;;;;3.20;3.10;;;34.40;52.00;;;;;;5113633;28;20810;-84
2021/06/19 11:09:43;;;;;;;3.37;3.20;;;34.50;50.20;;;;;;5114005;28;20413;-84
2021/06/19 11:12:27;;;;;;;3.13;3.03;;;34.40;51.60;;;;;;5115053;28;20749;-84
2021/06/19 11:14:55;;;;;;;3.70;3.60;;;34.40;50.20;;;;;;5113343;28;20412;-84
2021/06/19 11:17:21;;;;;;;3.40;3.20;;;34.40;51.90;;;;;;5115023;28;20816;-83
2021/06/19 11:19:48;;;;;;;3.30;3.20;;;34.50;53.50;;;;;;5114410;28;20466;-84
2021/06/19 11:22:34;;;;;;;3.23;3.03;;;34.60;52.20;;;;;;5113947;28;20258;-83
2021/06/19 11:25:25;;;;;;;3.67;3.47;;;34.60;52.00;;;;;;5113253;28;20495;-83
2021/06/19 11:27:52;;;;;;;4.70;4.50;;;34.60;50.60;;;;;;5113089;28;20962;-84
2021/06/19 11:30:36;;;;;;;3.53;3.43;;;34.60;51.00;;;;;;5115019;28;20417;-83
2021/06/19 11:33:26;;;;;;;2.97;2.87;;;34.70;52.70;;;;;;5114168;28;20412;-84
2021/06/19 11:36:14;;;;;;;2.87;2.70;;;34.80;53.30;;;;;;5113952;28;20477;-84
2021/06/19 11:38:42;;;;;;;3.13;2.93;;;34.90;51.90;;;;;;5114740;28;20425;-84
2021/06/19 11:41:23;;;;;;;3.30;3.10;;;35.00;53.10;;;;;;5113589;28;20402;-84
2021/06/19 11:43:49;;;;;;;3.23;2.90;;;35.00;53.10;;;;;;5112478;28;20457;-84
2021/06/19 11:46:23;;;;;;;3.17;2.90;;;34.90;52.20;;;;;;5113512;28;20438;-84
2021/06/19 11:48:58;;;;;;;2.90;2.80;;;34.80;50.80;;;;;;5113717;28;20452;-84
2021/06/19 11:51:27;;;;;;;3.00;2.90;;;34.80;53.30;;;;;;5114427;28;20492;-83
2021/06/19 11:53:55;;;;;;;2.80;2.60;;;34.80;51.50;;;;;;5113394;28;20846;-84
2021/06/19 11:56:24;;;;;;;3.27;3.07;;;34.80;49.20;;;;;;5113950;28;20822;-84
2021/06/19 11:59:04;;;;;;;2.70;2.60;;;34.50;48.90;;;;;;5112439;28;20420;-83
2021/06/19 12:01:36;;;;;;;2.90;2.80;;;34.50;48.30;;;;;;5113191;28;20416;-84
2021/06/19 12:04:04;;;;;;;3.00;2.90;;;34.40;49.30;;;;;;5112237;28;20459;-83
2021/06/19 12:06:31;;;;;;;2.80;2.70;;;34.40;49.40;;;;;;5113620;28;20416;-83
2021/06/19 12:08:57;;;;;;;2.63;2.53;;;33.90;47.50;;;;;;5112195;28;20450;-84
2021/06/19 12:11:31;;;;;;;3.10;3.00;;;33.90;51.40;;;;;;5112829;28;20416;-84
2021/06/19 12:13:58;;;;;;;3.60;3.40;;;33.90;52.70;;;;;;5113489;28;20595;-84
2021/06/19 12:16:30;;;;;;;3.00;2.90;;;34.00;53.50;;;;;;5112804;28;20416;-83
2021/06/19 12:19:03;;;;;;;3.00;2.90;;;34.00;52.00;;;;;;5111804;28;20406;-83
2021/06/19 12:21:32;;;;;;;2.90;2.80;;;34.00;51.90;;;;;;5112648;28;20805;-84
2021/06/19 12:23:57;;;;;;;2.70;2.60;;;34.00;52.90;;;;;;5112473;28;20453;-85
2021/06/19 12:26:23;;;;;;;2.33;2.33;;;33.90;50.20;;;;;;5113031;28;20559;-83
2021/06/19 12:28:50;;;;;;;2.70;2.60;;;33.80;50.20;;;;;;5112961;28;20207;-85
2021/06/19 12:31:21;;;;;;;2.53;2.37;;;33.60;48.50;;;;;;5113361;28;20171;-82
2021/06/19 12:34:01;;;;;;;2.57;2.50;;;33.50;49.20;;;;;;5113587;28;20479;-83
2021/06/19 12:36:27;;;;;;;3.13;2.43;;;33.50;49.80;;;;;;5112477;28;20413;-83
2021/06/19 12:38:54;;;;;;;4.47;2.63;;;33.50;50.50;;;;;;5112873;28;20500;-83
2021/06/19 12:41:21;;;;;;;2.80;2.70;;;33.40;50.20;;;;;;5113719;28;20409;-83
2021/06/19 12:43:53;;;;;;;3.00;2.90;;;33.40;52.00;;;;;;5113430;28;20409;-83
2021/06/19 12:46:24;;;;;;;3.13;2.93;;;33.40;51.00;;;;;;5112217;28;20397;-83
2021/06/19 12:49:01;;;;;;;48.07;43.90;;;33.40;50.70;;;;;;5111904;28;20534;-86
2021/06/19 12:51:36;;;;;;;36.67;33.37;;;33.50;52.40;;;;;;5112154;28;20420;-82